Time;durP1;ratioP1;P1;durP2;ratioP2;P2;SDS_P1;SDS_P2;PMS_P1;PMS_P2;Temp;Humidity;BMP_temperature;BMP_pressure;BME280_temperature;BME280_humidity;BME280_pressure;Samples;Min_cycle;Max_cycle;Signal;HPM_P1;HPM_P2
2022/03/05 00:03:07;;;;;;;33.90;13.97;;;;;;;-4.04;100.00;97097.06;10535568;28;20233;-59
2022/03/05 00:08:09;;;;;;;33.40;14.77;;;;;;;-4.04;100.00;97091.09;10535975;28;20210;-57
2022/03/05 00:13:09;;;;;;;31.70;14.20;;;;;;;-4.11;100.00;97095.63;10535461;28;20982;-59
2022/03/05 00:18:09;;;;;;;26.87;13.30;;;;;;;-4.23;100.00;97101.19;10516579;22;20238;-61
2022/03/05 00:23:10;;;;;;;26.53;13.30;;;;;;;-4.20;100.00;97106.19;10411224;28;20796;-61
2022/03/05 00:28:10;;;;;;;26.53;12.97;;;;;;;-4.20;100.00;97109.56;10410962;28;20675;-63
2022/03/05 00:33:10;;;;;;;24.80;11.83;;;;;;;-4.26;100.00;97104.69;10411338;28;20731;-63
2022/03/05 00:38:11;;;;;;;25.77;13.50;;;;;;;-4.40;100.00;97105.19;10412560;28;20214;-64
2022/03/05 00:43:13;;;;;;;25.80;12.67;;;;;;;-4.41;100.00;97108.66;10419722;28;20762;-64
2022/03/05 00:48:13;;;;;;;27.17;13.17;;;;;;;-4.34;100.00;97107.50;10419279;28;20223;-61
2022/03/05 00:53:17;;;;;;;28.00;13.27;;;;;;;-4.27;100.00;97105.59;10418999;28;20199;-60
2022/03/05 00:58:17;;;;;;;27.97;13.67;;;;;;;-4.30;100.00;97093.75;10419087;28;20246;-63
2022/03/05 01:03:17;;;;;;;28.20;12.07;;;;;;;-4.41;100.00;97095.84;10418354;28;20696;-61
2022/03/05 01:08:18;;;;;;;30.63;14.30;;;;;;;-4.66;100.00;97088.19;10418755;28;20582;-62
2022/03/05 01:13:18;;;;;;;28.43;13.17;;;;;;;-4.41;100.00;97098.41;10418309;28;20221;-61
2022/03/05 01:18:19;;;;;;;28.03;14.03;;;;;;;-4.42;100.00;97103.59;10417257;28;20263;-61
2022/03/05 01:23:19;;;;;;;26.03;12.43;;;;;;;-4.22;100.00;97106.25;10417984;28;20263;-60
2022/03/05 01:28:19;;;;;;;30.07;14.27;;;;;;;-4.29;100.00;97099.69;10417723;28;20211;-63
2022/03/05 01:33:20;;;;;;;26.03;12.20;;;;;;;-4.22;100.00;97106.25;10417774;28;20190;-61
2022/03/05 01:38:20;;;;;;;33.53;13.20;;;;;;;-4.13;100.00;97098.22;10417268;28;20225;-63
2022/03/05 01:43:21;;;;;;;23.47;12.40;;;;;;;-4.12;100.00;97104.19;10417363;28;20217;-60
2022/03/05 01:48:22;;;;;;;26.10;12.30;;;;;;;-4.16;100.00;97100.91;10417011;28;20213;-63
2022/03/05 01:53:22;;;;;;;22.87;12.20;;;;;;;-4.05;100.00;97094.56;10415744;28;20218;-65
2022/03/05 01:58:23;;;;;;;25.50;12.53;;;;;;;-3.99;100.00;97092.59;10416530;28;20215;-63
2022/03/05 02:03:24;;;;;;;28.30;11.90;;;;;;;-4.03;100.00;97088.47;10416057;28;20222;-62
2022/03/05 02:08:24;;;;;;;26.57;12.40;;;;;;;-4.02;100.00;97082.47;10416230;28;20216;-64
2022/03/05 02:13:26;;;;;;;23.60;11.50;;;;;;;-3.81;100.00;97090.25;10416131;28;20188;-64
2022/03/05 02:18:26;;;;;;;25.13;13.23;;;;;;;-3.91;100.00;97089.75;10415078;28;20655;-64
2022/03/05 02:23:27;;;;;;;28.70;12.80;;;;;;;-3.95;100.00;97085.66;10415721;28;20242;-61
2022/03/05 02:28:29;;;;;;;25.80;14.03;;;;;;;-3.79;100.00;97089.28;10397649;28;20219;-63
2022/03/05 02:33:29;;;;;;;26.63;13.13;;;;;;;-3.69;100.00;97082.09;10415539;28;20210;-63
2022/03/05 02:38:29;;;;;;;24.60;11.93;;;;;;;-3.55;100.00;97080.72;10415343;28;20236;-66
2022/03/05 02:43:30;;;;;;;25.40;14.00;;;;;;;-3.51;100.00;97084.81;10414832;28;20252;-64
2022/03/05 02:48:33;;;;;;;23.90;12.07;;;;;;;-3.67;100.00;97074.38;10414580;28;20215;-64
2022/03/05 02:53:34;;;;;;;26.03;13.03;;;;;;;-3.36;100.00;97073.16;10414266;28;20203;-65
2022/03/05 02:58:35;;;;;;;27.70;12.30;;;;;;;-3.51;100.00;97069.47;10414311;28;20220;-63
2022/03/05 03:03:35;;;;;;;30.77;13.80;;;;;;;-3.33;100.00;97068.72;10413745;28;20227;-64
2022/03/05 03:08:35;;;;;;;24.37;13.67;;;;;;;-3.45;100.00;97066.66;10413931;28;20298;-65
2022/03/05 03:13:37;;;;;;;25.97;13.43;;;;;;;-3.63;100.00;97069.06;10413831;28;20199;-64
2022/03/05 03:18:37;;;;;;;23.30;11.67;;;;;;;-3.34;100.00;97066.22;10412872;28;20354;-65
2022/03/05 03:23:38;;;;;;;26.67;13.27;;;;;;;-3.30;100.00;97070.34;10413203;28;20691;-63
2022/03/05 03:28:38;;;;;;;23.40;12.27;;;;;;;-3.24;100.00;97058.09;10413081;28;20342;-65
2022/03/05 03:33:39;;;;;;;24.57;12.43;;;;;;;-3.46;100.00;97062.41;10412748;28;20203;-61
2022/03/05 03:38:40;;;;;;;23.50;12.60;;;;;;;-3.48;100.00;97059.09;10412742;28;20220;-65
2022/03/05 03:43:40;;;;;;;27.70;13.97;;;;;;;-3.53;100.00;97061.00;10412251;28;20709;-63
2022/03/05 03:48:40;;;;;;;23.07;11.77;;;;;;;-3.50;100.00;97068.56;10412300;28;20218;-62
2022/03/05 03:53:41;;;;;;;24.37;12.60;;;;;;;-3.20;100.00;97065.66;10412229;28;20287;-63
2022/03/05 03:58:41;;;;;;;23.90;12.33;;;;;;;-3.21;100.00;97067.41;10411836;28;20220;-63
2022/03/05 04:03:42;;;;;;;25.83;13.37;;;;;;;-3.34;100.00;97071.34;10411671;28;20210;-65
2022/03/05 04:08:42;;;;;;;28.60;12.83;;;;;;;-3.40;100.00;97059.59;10411485;28;20690;-62
2022/03/05 04:13:47;;;;;;;27.47;13.27;;;;;;;-3.30;100.00;97067.78;10411227;28;20758;-64
2022/03/05 04:18:47;;;;;;;28.67;13.20;;;;;;;-3.24;100.00;97062.41;10410805;28;20867;-63
2022/03/05 04:23:47;;;;;;;24.03;12.57;;;;;;;-3.02;100.00;97058.94;10411040;28;20221;-64
2022/03/05 04:28:48;;;;;;;27.60;13.00;;;;;;;-3.26;100.00;97057.34;10411387;28;20224;-61
2022/03/05 04:33:48;;;;;;;36.27;16.27;;;;;;;-3.23;100.00;97056.38;10410957;28;20272;-63
2022/03/05 04:38:49;;;;;;;26.33;12.00;;;;;;;-3.10;100.00;97065.22;10411269;28;20204;-60
2022/03/05 04:43:49;;;;;;;94.70;38.83;;;;;;;-3.25;100.00;97064.13;10410758;28;20263;-64
2022/03/05 04:48:49;;;;;;;30.30;14.67;;;;;;;-3.11;100.00;97070.41;10410628;28;20216;-64
2022/03/05 04:53:50;;;;;;;36.80;19.07;;;;;;;-3.07;100.00;97070.22;10410578;28;20215;-63
2022/03/05 04:58:50;;;;;;;25.73;13.77;;;;;;;-3.20;100.00;97083.59;10409847;28;20208;-64
2022/03/05 05:03:50;;;;;;;185.47;49.73;;;;;;;-3.15;100.00;97086.81;10410545;28;20220;-64
2022/03/05 05:08:51;;;;;;;23.50;12.67;;;;;;;-2.98;100.00;97081.00;10410383;28;20284;-63
2022/03/05 05:13:52;;;;;;;21.50;11.33;;;;;;;-3.05;100.00;97078.69;10410443;28;20192;-61
2022/03/05 05:24:12;;;;;;;22.90;11.50;;;;;;;-3.05;100.00;97078.69;10411814;28;20231;-63
2022/03/05 05:29:13;;;;;;;26.10;12.47;;;;;;;-3.35;100.00;97088.44;10417867;28;20231;-61
2022/03/05 05:34:13;;;;;;;26.57;13.37;;;;;;;-3.51;100.00;97084.81;10417629;28;20191;-62
2022/03/05 05:39:15;;;;;;;25.87;12.43;;;;;;;-3.49;100.00;97091.56;10417659;28;20632;-61
2022/03/05 05:44:15;;;;;;;35.70;14.40;;;;;;;-3.36;100.00;97094.47;10417146;28;20679;-64
2022/03/05 05:49:16;;;;;;;32.30;15.40;;;;;;;-3.11;100.00;97089.19;10417075;28;20246;-63
2022/03/05 05:54:16;;;;;;;38.77;18.07;;;;;;;-3.14;100.00;97088.47;10416953;28;20199;-63
2022/03/05 05:59:17;;;;;;;44.87;20.33;;;;;;;-3.24;100.00;97096.53;10416676;28;20227;-63
2022/03/05 06:04:17;;;;;;;186.50;50.37;;;;;;;-3.33;100.00;97096.91;10416494;28;20319;-63
2022/03/05 06:09:17;;;;;;;68.33;27.47;;;;;;;-3.36;100.00;97101.31;10416305;28;20212;-63
2022/03/05 06:14:18;;;;;;;30.17;15.70;;;;;;;-3.22;100.00;97101.59;10416129;28;20279;-62
2022/03/05 06:19:18;;;;;;;26.07;14.07;;;;;;;-2.97;100.00;97101.44;10397398;28;20252;-62
2022/03/05 06:24:18;;;;;;;29.83;16.73;;;;;;;-3.07;100.00;97120.63;10449698;23;20235;-60
2022/03/05 06:29:19;;;;;;;31.60;17.00;;;;;;;-3.17;100.00;97112.50;10450129;28;20200;-58
2022/03/05 06:34:20;;;;;;;31.93;17.33;;;;;;;-3.06;100.00;97114.63;10431959;28;20227;-60
2022/03/05 06:39:22;;;;;;;28.20;14.87;;;;;;;-3.03;100.00;97117.06;10433749;28;20581;-60
2022/03/05 06:44:23;;;;;;;28.80;15.67;;;;;;;-2.57;100.00;97120.28;10431462;28;20226;-58
2022/03/05 06:49:23;;;;;;;31.77;14.87;;;;;;;-2.38;100.00;97129.75;10433679;28;20203;-60
2022/03/05 06:54:24;;;;;;;65.77;29.57;;;;;;;-2.23;100.00;97126.50;10431515;28;20714;-59
2022/03/05 06:59:24;;;;;;;34.90;17.73;;;;;;;-2.11;100.00;97130.28;10450552;28;20192;-60
2022/03/05 07:04:25;;;;;;;37.50;18.87;;;;;;;-1.90;100.00;97136.19;10455333;28;20236;-57
2022/03/05 07:09:25;;;;;;;32.87;15.60;;;;;;;-1.71;100.00;97132.78;10455512;28;20195;-59
2022/03/05 07:14:26;;;;;;;27.47;15.07;;;;;;;-1.75;100.00;97126.94;10454784;28;20212;-58
2022/03/05 07:19:26;;;;;;;61.13;29.50;;;;;;;-1.34;100.00;97141.34;10454544;28;20289;-60
2022/03/05 07:24:26;;;;;;;25.03;14.57;;;;;;;-1.19;100.00;97145.75;10454104;28;20327;-61
2022/03/05 07:29:27;;;;;;;29.07;13.90;;;;;;;-1.20;100.00;97145.84;10454762;28;20196;-59
2022/03/05 07:34:27;;;;;;;22.43;14.17;;;;;;;-0.95;100.00;97150.63;10454280;28;20219;-60
2022/03/05 07:39:27;;;;;;;23.17;13.67;;;;;;;-0.94;100.00;97160.81;10453763;28;20283;-59
2022/03/05 07:44:28;;;;;;;24.77;13.50;;;;;;;-0.94;100.00;97162.56;10453869;28;20236;-59
2022/03/05 07:49:28;;;;;;;27.80;14.20;;;;;;;-0.90;100.00;97164.09;10452602;28;20206;-60
2022/03/05 07:54:28;;;;;;;27.50;13.23;;;;;;;-0.79;100.00;97159.25;10453598;28;20299;-59
2022/03/05 07:59:29;;;;;;;26.50;13.63;;;;;;;-0.55;100.00;97162.38;10447466;28;20201;-60
2022/03/05 08:04:29;;;;;;;21.97;12.67;;;;;;;-0.48;100.00;97160.31;10393290;28;20231;-60
2022/03/05 08:09:30;;;;;;;32.47;16.37;;;;;;;-0.22;100.00;97163.31;10425942;28;20244;-57
2022/03/05 08:14:30;;;;;;;27.60;16.97;;;;;;;0.27;100.00;97172.81;10415272;28;20215;-60
2022/03/05 08:19:30;;;;;;;28.03;15.87;;;;;;;0.16;100.00;97173.38;10412316;28;20254;-60
2022/03/05 08:24:31;;;;;;;29.33;16.37;;;;;;;0.08;100.00;97170.38;10450559;28;20226;-61
2022/03/05 08:29:31;;;;;;;34.83;19.27;;;;;;;0.25;100.00;97175.47;10427755;28;20290;-62
2022/03/05 08:34:31;;;;;;;25.50;14.37;;;;;;;0.86;100.00;97166.16;10409428;28;20895;-63
2022/03/05 08:39:32;;;;;;;21.63;12.80;;;;;;;0.63;100.00;97172.56;10409750;28;20567;-60
2022/03/05 08:44:32;;;;;;;23.53;12.33;;;;;;;1.15;100.00;97175.75;10408810;28;20569;-60
2022/03/05 08:49:33;;;;;;;19.90;10.53;;;;;;;1.45;100.00;97167.19;10409815;28;20192;-61
2022/03/05 08:54:33;;;;;;;18.83;9.03;;;;;;;1.21;100.00;97173.66;10408758;28;20208;-61
2022/03/05 08:59:33;;;;;;;17.43;9.27;;;;;;;1.47;100.00;97165.34;10410915;28;20299;-60
2022/03/05 09:04:34;;;;;;;16.93;8.87;;;;;;;1.48;100.00;97167.00;10413283;28;20236;-58
2022/03/05 09:09:35;;;;;;;17.23;8.97;;;;;;;1.08;100.00;97184.78;10414302;28;20188;-60
2022/03/05 09:14:35;;;;;;;11.60;7.73;;;;;;;1.04;100.00;97190.09;10415053;28;20588;-60
2022/03/05 09:19:35;;;;;;;15.13;8.07;;;;;;;1.51;100.00;97180.56;10416107;28;20713;-60
2022/03/05 09:24:37;;;;;;;13.77;7.77;;;;;;;1.57;100.00;97181.97;10415523;28;20714;-60
2022/03/05 09:29:37;;;;;;;12.80;7.87;;;;;;;2.21;100.00;97172.16;10404325;28;20619;-60
2022/03/05 09:34:37;;;;;;;11.53;7.90;;;;;;;2.47;100.00;97162.78;10428903;28;20216;-59
2022/03/05 09:39:38;;;;;;;13.70;7.33;;;;;;;2.71;100.00;97144.09;10456685;28;20195;-61
2022/03/05 09:44:38;;;;;;;11.97;6.77;;;;;;;3.54;100.00;97141.31;10456341;28;20230;-62
2022/03/05 09:49:39;;;;;;;13.47;7.03;;;;;;;3.86;96.86;97127.09;10415727;28;20631;-59
2022/03/05 09:54:39;;;;;;;10.53;6.77;;;;;;;3.78;94.75;97132.00;10414696;28;20216;-63
2022/03/05 09:59:40;;;;;;;12.03;6.17;;;;;;;4.14;91.90;97109.69;10413361;28;20184;-63
2022/03/05 10:04:41;;;;;;;10.40;5.73;;;;;;;4.54;89.23;97088.72;10410665;28;20259;-62
2022/03/05 10:09:47;;;;;;;9.63;5.03;;;;;;;4.49;85.00;97052.72;10414845;28;20196;-63
2022/03/05 10:15:11;;;;;;;8.77;5.10;;;;;;;4.98;84.78;97064.72;10414399;28;20240;-62
2022/03/05 10:20:11;;;;;;;9.83;4.33;;;;;;;6.47;77.30;96993.63;10414419;28;20204;-58
2022/03/05 10:25:12;;;;;;;9.47;3.40;;;;;;;6.51;74.00;96977.63;10421727;28;20290;-61
2022/03/05 10:30:12;;;;;;;5.10;3.27;;;;;;;5.54;77.52;97034.59;10398799;28;20200;-63
2022/03/05 10:35:18;;;;;;;9.73;5.80;;;;;;;4.54;80.41;97073.97;10427884;28;20212;-59
2022/03/05 10:40:51;;;;;;;12.60;4.80;;;;;;;3.18;84.16;97118.66;10423776;28;20278;-63
2022/03/05 10:45:58;;;;;;;8.57;5.50;;;;;;;2.76;86.95;97144.63;10432844;28;20227;-63
2022/03/05 10:51:09;;;;;;;10.30;6.50;;;;;;;2.32;93.82;97182.66;10414593;28;20217;-63
2022/03/05 10:56:30;;;;;;;14.37;6.17;;;;;;;2.31;96.32;97159.47;10454626;28;20263;-63
2022/03/05 11:01:31;;;;;;;12.57;5.27;;;;;;;2.35;95.21;97137.69;10450405;28;20247;-63
2022/03/05 11:06:37;;;;;;;9.37;5.00;;;;;;;2.33;93.38;97124.06;10423192;28;20192;-63
2022/03/05 11:11:40;;;;;;;8.80;3.70;;;;;;;2.04;92.28;97124.06;10412836;28;20205;-65
2022/03/05 11:16:41;;;;;;;8.93;4.50;;;;;;;2.36;92.94;97118.69;10414183;28;20574;-63
2022/03/05 11:21:42;;;;;;;10.37;4.30;;;;;;;2.81;91.71;97118.47;10413029;28;20247;-64
2022/03/05 11:26:42;;;;;;;12.03;5.10;;;;;;;3.36;87.12;97077.78;10412909;28;20203;-64
2022/03/05 11:31:42;;;;;;;8.23;4.57;;;;;;;3.28;87.77;97091.25;10408410;28;20213;-65
2022/03/05 11:36:45;;;;;;;11.40;5.20;;;;;;;3.26;89.84;97111.22;10408086;28;20659;-64
2022/03/05 11:42:09;;;;;;;11.17;6.27;;;;;;;3.50;88.68;97101.00;10412250;28;20305;-64
2022/03/05 11:47:18;;;;;;;11.30;6.00;;;;;;;3.81;90.28;97113.66;10411880;28;20239;-63
2022/03/05 11:52:18;;;;;;;12.03;7.03;;;;;;;4.26;84.73;97057.78;10411682;28;20224;-63
2022/03/05 11:57:19;;;;;;;10.50;6.20;;;;;;;4.26;81.08;97016.28;10403933;28;20557;-64
2022/03/05 12:02:41;;;;;;;10.80;6.77;;;;;;;4.83;78.51;96988.78;10412844;28;20631;-64
2022/03/05 12:07:41;;;;;;;8.80;6.00;;;;;;;5.66;73.76;96929.69;10411803;28;20189;-63
2022/03/05 12:12:51;;;;;;;9.73;6.10;;;;;;;4.93;74.73;96963.00;10411203;28;20197;-63
2022/03/05 12:17:51;;;;;;;12.73;7.30;;;;;;;4.67;72.57;96920.84;10410622;28;20654;-64
2022/03/05 12:23:04;;;;;;;13.80;7.30;;;;;;;4.25;75.59;96980.09;10410671;28;20323;-64
2022/03/05 12:28:23;;;;;;;8.63;6.20;;;;;;;4.97;73.35;96941.03;10411202;28;20682;-61
2022/03/05 12:33:24;;;;;;;9.40;6.00;;;;;;;6.94;68.98;96884.75;10410204;28;20705;-63
2022/03/05 12:38:25;;;;;;;9.10;6.23;;;;;;;5.65;65.51;96807.66;10410664;28;20196;-62
2022/03/05 12:43:25;;;;;;;10.97;6.63;;;;;;;6.25;65.79;96831.47;10410265;28;20224;-62
2022/03/05 12:48:25;;;;;;;11.23;6.57;;;;;;;6.63;67.59;96874.31;10410294;28;20196;-60
2022/03/05 12:53:26;;;;;;;14.67;7.03;;;;;;;5.57;66.60;96834.28;10402481;28;20228;-61
2022/03/05 12:58:45;;;;;;;8.23;5.57;;;;;;;5.08;68.91;96882.28;10409488;28;20541;-62
2022/03/05 13:03:45;;;;;;;11.83;5.53;;;;;;;4.43;71.74;96932.06;10410317;28;20217;-61
2022/03/05 13:08:46;;;;;;;7.27;4.80;;;;;;;4.47;68.73;96876.44;10409774;28;20733;-61
2022/03/05 13:13:58;;;;;;;7.97;5.20;;;;;;;3.61;70.33;96905.16;10410137;28;20667;-62
2022/03/05 13:19:12;;;;;;;10.57;6.67;;;;;;;3.83;72.76;96957.13;10409618;28;20558;-62
2022/03/05 13:24:14;;;;;;;13.07;7.07;;;;;;;3.42;76.25;97019.59;10409776;28;20338;-61
2022/03/05 13:29:15;;;;;;;7.97;6.00;;;;;;;3.19;76.20;97003.84;10409540;28;20276;-63
2022/03/05 13:34:23;;;;;;;10.93;7.87;;;;;;;3.35;74.82;96983.75;10409734;28;20213;-61
2022/03/05 13:39:26;;;;;;;11.40;7.40;;;;;;;3.26;75.02;96981.75;10409849;28;20196;-61
2022/03/05 13:44:32;;;;;;;10.77;6.67;;;;;;;3.58;75.70;96991.69;10409052;28;20223;-63
2022/03/05 13:49:34;;;;;;;11.23;7.10;;;;;;;3.72;74.87;96985.53;10416200;28;20185;-63
2022/03/05 13:54:44;;;;;;;10.03;6.67;;;;;;;3.92;72.35;96933.16;10416311;28;20216;-63
2022/03/05 13:59:47;;;;;;;12.37;6.57;;;;;;;3.22;73.03;96946.69;10414750;28;20202;-63
2022/03/05 14:05:07;;;;;;;11.23;6.70;;;;;;;3.19;75.20;96988.31;10415848;28;20212;-63
2022/03/05 14:10:10;;;;;;;9.80;6.70;;;;;;;2.95;74.71;96964.91;10415906;28;20220;-63
2022/03/05 14:15:12;;;;;;;10.77;7.30;;;;;;;2.84;75.01;96961.25;10415584;28;20225;-63
2022/03/05 14:20:25;;;;;;;9.67;5.40;;;;;;;3.76;72.09;96922.22;10415609;28;20231;-62
2022/03/05 14:25:37;;;;;;;6.97;5.03;;;;;;;5.43;64.92;96787.78;10414894;28;20229;-61
2022/03/05 14:30:37;;;;;;;6.93;4.83;;;;;;;5.65;59.71;96701.97;10415070;28;20189;-62
2022/03/05 14:35:38;;;;;;;4.60;3.60;;;;;;;5.95;55.85;96634.53;10415125;28;20690;-61
2022/03/05 14:40:40;;;;;;;6.00;3.83;;;;;;;6.18;58.08;96682.84;10408878;28;20192;-61
2022/03/05 14:45:41;;;;;;;7.00;3.60;;;;;;;6.71;53.97;96602.91;10412794;28;20710;-58
2022/03/05 14:50:43;;;;;;;7.63;3.90;;;;;;;6.59;54.31;96613.44;10414298;28;20203;-58
2022/03/05 14:55:43;;;;;;;4.93;2.93;;;;;;;6.00;53.83;96593.41;10414592;28;20200;-60
2022/03/05 15:00:43;;;;;;;6.27;3.47;;;;;;;6.52;52.15;96568.06;10413091;28;20188;-61
2022/03/05 15:05:44;;;;;;;3.90;3.03;;;;;;;5.33;54.01;96611.91;10413660;28;20733;-63
2022/03/05 15:10:44;;;;;;;5.93;3.30;;;;;;;4.88;55.75;96632.84;10413472;28;20232;-63
2022/03/05 15:15:45;;;;;;;5.03;3.00;;;;;;;3.72;57.49;96656.50;10413308;28;20271;-63
2022/03/05 15:20:46;;;;;;;5.30;3.23;;;;;;;3.92;60.06;96736.19;10413093;28;20199;-63
2022/03/05 15:25:46;;;;;;;7.57;3.70;;;;;;;5.00;60.00;96746.09;10430702;28;20232;-63
2022/03/05 15:30:47;;;;;;;6.30;3.40;;;;;;;4.83;57.62;96681.72;10453916;28;20271;-64
2022/03/05 15:35:47;;;;;;;7.40;3.40;;;;;;;4.45;58.41;96711.47;10453677;28;20206;-64
2022/03/05 15:40:48;;;;;;;10.27;5.00;;;;;;;3.32;66.87;96879.53;10455871;28;20283;-63
2022/03/05 15:45:48;;;;;;;11.63;5.90;;;;;;;3.01;68.46;96899.78;10468101;28;20308;-63
2022/03/05 15:50:48;;;;;;;8.10;5.43;;;;;;;2.58;70.21;96913.03;10470753;28;20200;-64
2022/03/05 15:55:49;;;;;;;12.23;6.20;;;;;;;2.17;72.61;96950.16;10470843;28;20215;-64
2022/03/05 16:00:49;;;;;;;9.87;6.30;;;;;;;2.04;73.94;96975.97;10459205;28;20203;-64
2022/03/05 16:05:51;;;;;;;10.43;5.20;;;;;;;2.10;73.86;96968.66;10411287;28;20756;-64
2022/03/05 16:10:51;;;;;;;9.30;5.17;;;;;;;2.06;72.71;96945.69;10410762;28;20734;-63
2022/03/05 16:15:51;;;;;;;8.33;5.33;;;;;;;1.89;72.72;96944.19;10410922;28;20235;-63
2022/03/05 16:20:52;;;;;;;6.73;4.93;;;;;;;2.01;70.63;96907.22;10411167;28;20203;-63
2022/03/05 16:25:53;;;;;;;9.37;5.23;;;;;;;2.01;70.68;96896.06;10410524;28;20322;-63
2022/03/05 16:30:53;;;;;;;10.23;5.10;;;;;;;1.94;71.95;96942.13;10410807;28;20722;-64
2022/03/05 16:35:53;;;;;;;33.10;16.77;;;;;;;1.65;73.54;96955.09;10471739;28;20692;-61
2022/03/05 16:40:54;;;;;;;10.47;6.77;;;;;;;1.69;71.67;96923.00;10490399;28;20841;-60
2022/03/05 16:45:54;;;;;;;17.10;12.07;;;;;;;1.47;73.08;96939.00;10493670;28;20230;-61
2022/03/05 16:50:55;;;;;;;8.23;5.33;;;;;;;1.35;73.81;96955.25;10493226;28;20213;-61
2022/03/05 16:55:55;;;;;;;12.27;5.93;;;;;;;1.06;74.49;96968.16;10493423;28;20216;-61
2022/03/05 17:00:55;;;;;;;9.83;5.83;;;;;;;1.04;75.53;96977.72;10492964;28;20554;-62
2022/03/05 17:05:56;;;;;;;10.00;6.30;;;;;;;0.88;76.76;96995.84;10492860;28;20225;-62
2022/03/05 17:10:56;;;;;;;12.13;6.37;;;;;;;1.00;75.99;96986.56;10493272;28;20203;-56
2022/03/05 17:15:56;;;;;;;12.60;6.40;;;;;;;1.02;78.70;97031.16;10492731;28;20249;-58
2022/03/05 17:20:57;;;;;;;10.47;5.30;;;;;;;0.83;79.97;97049.44;10496077;28;20198;-59
2022/03/05 17:25:57;;;;;;;11.00;5.93;;;;;;;0.65;80.72;97057.28;10500410;28;20238;-58
2022/03/05 17:30:58;;;;;;;12.87;7.47;;;;;;;0.17;83.52;97080.53;10500268;28;20201;-60
2022/03/05 17:35:58;;;;;;;12.13;6.80;;;;;;;-0.05;85.13;97082.59;10500301;28;20211;-56
2022/03/05 17:41:00;;;;;;;9.90;6.10;;;;;;;-0.09;85.91;97089.66;10499900;28;20187;-57
2022/03/05 17:46:00;;;;;;;42.83;14.73;;;;;;;-0.67;89.86;97100.38;10499829;28;20228;-58
2022/03/05 17:51:01;;;;;;;14.03;7.60;;;;;;;-0.97;93.69;97083.84;10499520;28;20278;-60
2022/03/05 17:56:02;;;;;;;8.97;5.70;;;;;;;-1.09;96.41;97077.56;10499742;28;20248;-55
2022/03/05 18:01:03;;;;;;;12.90;6.17;;;;;;;-1.02;99.20;97082.41;10506363;28;20199;-62
2022/03/05 18:06:07;;;;;;;12.13;6.43;;;;;;;-1.11;100.00;97084.50;10507846;28;20223;-59
2022/03/05 18:11:08;;;;;;;10.40;6.37;;;;;;;-1.62;100.00;97094.66;10499472;28;20199;-57
2022/03/05 18:16:08;;;;;;;9.20;6.33;;;;;;;-1.60;100.00;97097.16;10498540;28;20219;-54
2022/03/05 18:21:08;;;;;;;14.60;7.17;;;;;;;-1.62;100.00;97107.50;10498544;28;20197;-57
2022/03/05 18:26:10;;;;;;;15.17;8.43;;;;;;;-1.57;100.00;97099.56;10497903;28;20235;-56
2022/03/05 18:31:10;;;;;;;13.30;7.07;;;;;;;-1.36;100.00;97112.28;10497218;28;20282;-62
2022/03/05 18:36:12;;;;;;;12.70;7.90;;;;;;;-1.35;100.00;97111.41;10497896;28;20286;-58
2022/03/05 18:41:12;;;;;;;13.77;7.73;;;;;;;-1.48;100.00;97099.13;10497506;28;20195;-62
2022/03/05 18:46:13;;;;;;;15.27;8.00;;;;;;;-1.45;100.00;97096.44;10497613;28;20222;-61
2022/03/05 18:51:13;;;;;;;31.90;17.57;;;;;;;-1.66;100.00;97092.28;10497720;28;20286;-61
2022/03/05 18:56:14;;;;;;;12.30;8.77;;;;;;;-1.62;100.00;97084.38;10497117;28;20244;-61
2022/03/05 19:01:15;;;;;;;15.00;8.57;;;;;;;-1.84;100.00;97088.84;10496378;28;20210;-58
2022/03/05 19:06:15;;;;;;;15.67;8.37;;;;;;;-2.12;100.00;97089.28;10496699;28;20305;-61
2022/03/05 19:11:15;;;;;;;13.47;8.43;;;;;;;-2.20;100.00;97094.75;10496207;28;20198;-61
2022/03/05 19:16:16;;;;;;;26.33;12.43;;;;;;;-2.28;100.00;97095.09;10496400;28;20553;-59
2022/03/05 19:21:17;;;;;;;20.90;10.90;;;;;;;-2.12;100.00;97099.53;10495836;28;20199;-62
2022/03/05 19:26:17;;;;;;;13.67;8.03;;;;;;;-1.88;100.00;97095.84;10495766;28;20214;-61
2022/03/05 19:31:17;;;;;;;11.87;7.97;;;;;;;-1.81;100.00;97093.84;10495593;28;20671;-60
2022/03/05 19:36:18;;;;;;;14.70;7.83;;;;;;;-1.64;100.00;97098.19;10495404;28;20191;-61
2022/03/05 19:41:19;;;;;;;20.13;10.27;;;;;;;-1.62;100.00;97101.53;10495471;28;20269;-61
2022/03/05 19:46:19;;;;;;;21.57;10.67;;;;;;;-1.62;100.00;97110.06;10493791;28;20223;-62
2022/03/05 19:51:20;;;;;;;17.33;8.83;;;;;;;-1.69;100.00;97110.41;10491924;28;20183;-57
2022/03/05 19:56:20;;;;;;;18.80;11.27;;;;;;;-1.66;100.00;97115.41;10491804;28;20190;-62
2022/03/05 20:01:20;;;;;;;26.27;11.47;;;;;;;-1.62;100.00;97110.06;10493788;28;20186;-61
2022/03/05 20:06:21;;;;;;;13.97;8.30;;;;;;;-1.60;100.00;97116.88;10494679;28;20846;-61
2022/03/05 20:11:21;;;;;;;21.60;8.00;;;;;;;-1.63;100.00;97116.09;10494274;28;20191;-61
2022/03/05 20:16:22;;;;;;;16.13;7.90;;;;;;;-1.60;100.00;97111.75;10496339;28;20245;-61
2022/03/05 20:21:22;;;;;;;13.47;7.83;;;;;;;-1.55;100.00;97115.75;10493849;28;20187;-59
2022/03/05 20:26:22;;;;;;;22.30;10.97;;;;;;;-1.71;100.00;97109.66;10493923;28;20758;-61
2022/03/05 20:31:23;;;;;;;53.47;22.37;;;;;;;-1.72;100.00;97113.13;10493856;28;20661;-60
2022/03/05 20:36:23;;;;;;;15.23;9.00;;;;;;;-1.67;100.00;97111.16;10493560;28;20198;-61
2022/03/05 20:41:23;;;;;;;14.00;8.33;;;;;;;-1.63;100.00;97117.84;10493846;28;20724;-58
2022/03/05 20:46:24;;;;;;;21.43;10.57;;;;;;;-1.77;100.00;97118.47;10493570;28;20731;-61
2022/03/05 20:51:24;;;;;;;51.47;19.17;;;;;;;-1.70;100.00;97131.84;10493546;28;20662;-61
2022/03/05 20:56:25;;;;;;;19.03;8.33;;;;;;;-1.68;100.00;97133.47;10497483;28;20825;-61
2022/03/05 21:01:25;;;;;;;20.33;10.03;;;;;;;-1.64;100.00;97132.44;10501145;28;20199;-62
2022/03/05 21:06:26;;;;;;;19.00;8.47;;;;;;;-1.56;100.00;97124.38;10501534;28;20716;-62
2022/03/05 21:11:26;;;;;;;32.37;14.00;;;;;;;-1.30;100.00;97109.47;10501359;28;20187;-61
2022/03/05 21:16:27;;;;;;;17.33;9.67;;;;;;;-1.37;100.00;97118.38;10501189;28;20179;-59
2022/03/05 21:21:27;;;;;;;14.77;7.97;;;;;;;-1.63;100.00;97120.41;10500748;28;20195;-61
2022/03/05 21:26:27;;;;;;;19.70;8.17;;;;;;;-1.76;100.00;97127.00;10500780;28;20211;-60
2022/03/05 21:31:28;;;;;;;12.90;8.20;;;;;;;-1.95;100.00;97129.59;10500662;28;20203;-60
2022/03/05 21:36:28;;;;;;;14.90;6.83;;;;;;;-1.99;100.00;97132.28;10500597;28;20213;-59
2022/03/05 21:41:28;;;;;;;15.67;5.53;;;;;;;-1.93;100.00;97126.06;10499944;28;20199;-60
2022/03/05 21:46:29;;;;;;;9.97;5.67;;;;;;;-2.18;100.00;97131.44;10500120;28;20272;-58
2022/03/05 21:51:29;;;;;;;11.13;6.07;;;;;;;-2.41;100.00;97129.88;10499528;28;20289;-58
2022/03/05 21:56:29;;;;;;;11.70;5.80;;;;;;;-2.51;100.00;97132.84;10500020;28;20256;-61
2022/03/05 22:01:30;;;;;;;13.17;6.10;;;;;;;-2.65;100.00;97124.88;10499115;28;21556;-61
2022/03/05 22:06:30;;;;;;;10.87;6.60;;;;;;;-2.88;100.00;97136.09;10497428;28;20328;-61
2022/03/05 22:11:31;;;;;;;16.03;6.93;;;;;;;-3.02;100.00;97133.25;10499342;28;20239;-59
2022/03/05 22:16:31;;;;;;;11.10;5.70;;;;;;;-3.08;100.00;97134.34;10498758;28;20191;-62
2022/03/05 22:21:32;;;;;;;9.73;5.63;;;;;;;-3.22;100.00;97127.22;10498665;28;20261;-59
2022/03/05 22:26:32;;;;;;;8.20;5.37;;;;;;;-3.33;100.00;97130.19;10498582;28;20739;-60
2022/03/05 22:31:33;;;;;;;9.27;5.23;;;;;;;-3.39;100.00;97120.19;10498258;28;20224;-60
2022/03/05 22:36:33;;;;;;;13.97;5.93;;;;;;;-3.39;100.00;97121.94;10498428;28;20208;-59
2022/03/05 22:41:34;;;;;;;10.40;5.70;;;;;;;-3.57;100.00;97119.19;10497635;28;20214;-60
2022/03/05 22:46:34;;;;;;;8.87;5.73;;;;;;;-3.69;100.00;97122.22;10498121;28;20219;-61
2022/03/05 22:51:34;;;;;;;11.37;5.00;;;;;;;-3.68;100.00;97119.59;10497333;28;20213;-60
2022/03/05 22:56:35;;;;;;;9.10;5.10;;;;;;;-3.70;100.00;97115.44;10497565;28;20190;-60
2022/03/05 23:01:36;;;;;;;7.00;4.07;;;;;;;-3.76;100.00;97112.22;10496667;28;20242;-60
2022/03/05 23:06:36;;;;;;;9.10;4.87;;;;;;;-3.82;100.00;97111.63;10496334;28;20893;-60